createdAt,value
2018-11-20T00:00:15.872Z,42.96
2018-11-20T00:01:15.851Z,42.96
2018-11-20T00:02:15.836Z,42.15
2018-11-20T00:03:15.843Z,42.05
2018-11-20T00:04:15.813Z,42.15
2018-11-20T00:05:15.815Z,42.55
2018-11-20T00:06:15.810Z,42.66
2018-11-20T00:07:15.779Z,42.15
2018-11-20T00:08:15.772Z,42.15
2018-11-20T00:09:15.784Z,42.66
2018-11-20T00:10:15.752Z,41.75
2018-11-20T00:11:15.752Z,43.06
2018-11-20T00:12:15.729Z,41.95
2018-11-20T00:13:15.726Z,42.76
2018-11-20T00:14:15.848Z,42.66
2018-11-20T00:15:15.703Z,42.55
2018-11-20T00:16:15.697Z,41.75
2018-11-20T00:17:15.672Z,42.46
2018-11-20T00:18:15.686Z,42.86
2018-11-20T00:19:15.658Z,42.55
2018-11-20T00:20:15.641Z,42.86
2018-11-20T00:21:15.651Z,42.66
2018-11-20T00:22:15.635Z,42.66
2018-11-20T00:23:15.606Z,42.05
2018-11-20T00:24:15.846Z,41.85
2018-11-20T00:25:15.589Z,43.06
2018-11-20T00:26:15.592Z,43.06
2018-11-20T00:27:15.573Z,42.55
2018-11-20T00:28:15.552Z,42.55
2018-11-20T00:29:15.550Z,42.15
2018-11-20T00:30:15.774Z,41.75
2018-11-20T00:31:15.548Z,41.75
2018-11-20T00:32:15.539Z,41.75
2018-11-20T00:33:15.503Z,41.85
2018-11-20T00:34:17.154Z,43.06
2018-11-20T00:35:15.484Z,42.46
2018-11-20T00:36:15.737Z,42.86
2018-11-20T00:37:15.465Z,42.68
2018-11-20T00:38:15.503Z,42.05
2018-11-20T00:39:15.447Z,41.75
2018-11-20T00:40:15.426Z,42.05
2018-11-20T00:41:15.437Z,41.95
2018-11-20T00:42:15.406Z,41.95
2018-11-20T00:43:15.397Z,42.05
2018-11-20T00:44:15.645Z,41.75
2018-11-20T00:45:15.378Z,42.05
2018-11-20T00:46:15.635Z,41.95
2018-11-20T00:47:15.356Z,41.85
2018-11-20T00:48:15.342Z,42.15
2018-11-20T00:49:15.327Z,42.05
2018-11-20T00:50:15.336Z,41.95
2018-11-20T00:51:15.574Z,42.25
2018-11-20T00:52:15.316Z,42.05
2018-11-20T00:53:15.288Z,42.15
2018-11-20T00:54:15.294Z,42.05
2018-11-20T00:55:15.263Z,41.85
2018-11-20T00:56:15.277Z,41.85
2018-11-20T00:57:15.250Z,41.97
2018-11-20T00:58:15.239Z,41.95
2018-11-20T00:59:15.245Z,41.95
2018-11-20T01:00:15.219Z,42.05
2018-11-20T01:01:15.472Z,41.85
2018-11-20T01:02:15.198Z,41.95
2018-11-20T01:03:15.442Z,42.05
2018-11-20T01:04:15.192Z,41.75
2018-11-20T01:05:15.179Z,41.75
2018-11-20T01:06:15.170Z,41.85
2018-11-20T01:07:15.653Z,42.86
2018-11-20T01:08:15.138Z,42.07
2018-11-20T01:09:15.122Z,41.95
2018-11-20T01:10:15.105Z,41.85
2018-11-20T01:11:15.131Z,41.95
2018-11-20T01:12:15.086Z,42.05
2018-11-20T01:13:15.084Z,42.25
2018-11-20T01:14:15.062Z,41.95
2018-11-20T01:15:15.113Z,41.95
2018-11-20T01:16:15.058Z,41.95
2018-11-20T01:17:15.287Z,41.95
2018-11-20T01:18:15.037Z,41.95
2018-11-20T01:19:15.023Z,41.85
2018-11-20T01:20:14.994Z,41.75
2018-11-20T01:21:15.008Z,42.05
2018-11-20T01:22:15.003Z,42.05
2018-11-20T01:23:14.973Z,41.85
2018-11-20T01:24:14.959Z,42.05
2018-11-20T01:25:14.950Z,42.35
2018-11-20T01:26:14.979Z,42.05
2018-11-20T01:27:15.170Z,42.05
2018-11-20T01:28:14.915Z,42.25
2018-11-20T01:29:14.904Z,41.95
2018-11-20T01:30:14.895Z,42.05
2018-11-20T01:31:14.878Z,41.95
2018-11-20T01:32:14.872Z,42.46
2018-11-20T01:33:14.863Z,42.25
2018-11-20T01:34:14.849Z,42.05
2018-11-20T01:35:15.091Z,42.25
2018-11-20T01:36:14.827Z,42.46
2018-11-20T01:37:14.819Z,42.05
2018-11-20T01:38:14.808Z,42.25
2018-11-20T01:39:14.791Z,42.25
2018-11-20T01:40:14.787Z,42.15
2018-11-20T01:41:14.841Z,42.46
2018-11-20T01:42:14.763Z,42.46
2018-11-20T01:43:15.016Z,42.05
2018-11-20T01:44:14.746Z,41.75
2018-11-20T01:45:14.727Z,42.05
2018-11-20T01:46:14.791Z,42.05
2018-11-20T01:47:14.718Z,42.46
2018-11-20T01:48:14.701Z,42.05
2018-11-20T01:49:14.692Z,42.05
2018-11-20T01:50:14.696Z,42.46
2018-11-20T01:51:14.749Z,42.47
2018-11-20T01:52:14.657Z,42.05
2018-11-20T01:53:14.644Z,42.46
2018-11-20T01:54:14.645Z,42.46
2018-11-20T01:55:14.727Z,42.25
2018-11-20T01:56:14.626Z,42.46
2018-11-20T01:57:14.615Z,42.46
2018-11-20T01:58:14.849Z,42.35
2018-11-20T01:59:14.586Z,42.46
2018-11-20T02:00:14.579Z,42.46
2018-11-20T02:01:14.815Z,42.46
2018-11-20T02:02:14.560Z,42.35
2018-11-20T02:03:14.541Z,42.15
2018-11-20T02:04:14.614Z,41.95
2018-11-20T02:05:14.515Z,42.38
2018-11-20T02:06:14.517Z,42.07
2018-11-20T02:07:14.546Z,42.27
2018-11-20T02:08:14.494Z,42.38
2018-11-20T02:09:14.728Z,42.27
2018-11-20T02:10:14.466Z,42.38
2018-11-20T02:11:14.455Z,42.38
2018-11-20T02:12:14.510Z,42.27
2018-11-20T02:13:14.507Z,42.27
2018-11-20T02:14:14.426Z,41.95
2018-11-20T02:15:14.421Z,42.05
2018-11-20T02:16:14.444Z,42.18
2018-11-20T02:17:14.421Z,42.05
2018-11-20T02:18:14.387Z,41.97
2018-11-20T02:19:14.369Z,42.18
2018-11-20T02:20:14.653Z,41.95
2018-11-20T02:21:14.671Z,41.95
2018-11-20T02:22:14.608Z,41.95
2018-11-20T02:23:14.335Z,41.95
2018-11-20T02:24:14.318Z,42.07
2018-11-20T02:25:14.313Z,42.15
2018-11-20T02:26:14.293Z,42.05
2018-11-20T02:27:14.314Z,42.18
2018-11-20T02:28:14.289Z,42.18
2018-11-20T02:29:14.264Z,42.38
2018-11-20T02:30:14.255Z,42.35
2018-11-20T02:31:14.516Z,42.27
2018-11-20T02:32:14.784Z,42.15
2018-11-20T02:33:14.231Z,42.18
2018-11-20T02:34:14.208Z,42.18
2018-11-20T02:35:14.202Z,42.18
2018-11-20T02:36:14.438Z,42.18
2018-11-20T02:37:14.768Z,41.97
2018-11-20T02:38:14.176Z,42.18
2018-11-20T02:39:14.178Z,42.18
2018-11-20T02:40:14.398Z,42.58
2018-11-20T02:41:14.148Z,42.25
2018-11-20T02:42:14.164Z,42.78
2018-11-20T02:43:14.139Z,42.18
2018-11-20T02:44:14.105Z,42.27
2018-11-20T02:45:14.101Z,42.18
2018-11-20T02:46:14.088Z,42.18
2018-11-20T02:47:14.263Z,42.18
2018-11-20T02:48:14.836Z,42.18
2018-11-20T02:49:14.050Z,41.87
2018-11-20T02:50:14.064Z,42.38
2018-11-20T02:51:14.030Z,42.25
2018-11-20T02:52:14.530Z,42.15
2018-11-20T02:53:14.043Z,41.87
2018-11-20T02:54:14.040Z,42.18
2018-11-20T02:55:13.997Z,42.68
2018-11-20T02:56:14.222Z,42.27
2018-11-20T02:57:14.113Z,42.18
2018-11-20T02:58:14.453Z,42.18
2018-11-20T02:59:14.071Z,42.38
2018-11-20T03:00:13.928Z,42.18
2018-11-20T03:01:13.923Z,42.68
2018-11-20T03:02:13.925Z,42.18
2018-11-20T03:03:14.162Z,42.18
2018-11-20T03:04:13.888Z,42.47
2018-11-20T03:05:14.124Z,42.38
2018-11-20T03:06:14.113Z,42.35
2018-11-20T03:07:13.869Z,42.35
2018-11-20T03:08:13.853Z,42.27
2018-11-20T03:09:13.840Z,42.46
2018-11-20T03:10:13.839Z,42.47
2018-11-20T03:11:13.822Z,42.58
2018-11-20T03:12:13.814Z,42.18
2018-11-20T03:13:13.794Z,42.27
2018-11-20T03:14:14.092Z,42.55
2018-11-20T03:15:13.783Z,42.38
2018-11-20T03:16:13.768Z,42.38
2018-11-20T03:17:13.756Z,42.46
2018-11-20T03:18:13.757Z,42.58
2018-11-20T03:19:13.772Z,42.38
2018-11-20T03:20:13.720Z,42.18
2018-11-20T03:21:14.027Z,42.18
2018-11-20T03:22:13.948Z,42.18
2018-11-20T03:23:13.723Z,42.18
2018-11-20T03:24:13.678Z,42.18
2018-11-20T03:25:13.668Z,42.18
2018-11-20T03:26:13.651Z,42.38
2018-11-20T03:27:13.657Z,42.25
2018-11-20T03:28:13.655Z,42.27
2018-11-20T03:29:13.763Z,42.38
2018-11-20T03:30:13.621Z,42.27
2018-11-20T03:31:13.607Z,42.27
2018-11-20T03:32:13.639Z,42.58
2018-11-20T03:33:13.594Z,42.27
2018-11-20T03:34:13.581Z,42.78
2018-11-20T03:35:13.562Z,42.47
2018-11-20T03:36:13.585Z,42.47
2018-11-20T03:37:13.546Z,42.18
2018-11-20T03:38:13.554Z,42.27
2018-11-20T03:39:13.516Z,42.27
2018-11-20T03:40:13.505Z,42.18
2018-11-20T03:41:13.509Z,42.18
2018-11-20T03:42:13.481Z,42.25
2018-11-20T03:43:13.491Z,42.38
2018-11-20T03:44:13.472Z,42.18
2018-11-20T03:45:13.465Z,42.27
2018-11-20T03:46:13.455Z,42.27
2018-11-20T03:47:13.442Z,42.58
2018-11-20T03:48:13.497Z,42.58
2018-11-20T03:49:13.428Z,42.27
2018-11-20T03:50:13.397Z,42.27
2018-11-20T03:51:13.386Z,42.38
2018-11-20T03:52:13.617Z,42.38
2018-11-20T03:53:13.374Z,42.38
2018-11-20T03:54:13.367Z,42.27
2018-11-20T03:55:15.014Z,42.27
2018-11-20T03:56:13.330Z,42.27
2018-11-20T03:57:13.321Z,42.58
2018-11-20T03:58:13.329Z,42.47
2018-11-20T03:59:13.302Z,42.27
2018-11-20T04:00:13.286Z,42.27
2018-11-20T04:01:13.274Z,42.38
2018-11-20T04:02:13.269Z,42.78
2018-11-20T04:03:13.267Z,42.27
2018-11-20T04:04:13.261Z,42.38
2018-11-20T04:05:13.243Z,42.58
2018-11-20T04:06:13.472Z,42.58
2018-11-20T04:07:13.218Z,42.38
2018-11-20T04:08:13.221Z,42.58
2018-11-20T04:09:13.200Z,42.68
2018-11-20T04:10:13.180Z,42.58
2018-11-20T04:11:13.431Z,42.58
2018-11-20T04:12:13.162Z,42.58
2018-11-20T04:13:13.162Z,42.78
2018-11-20T04:14:13.169Z,42.78
2018-11-20T04:15:13.134Z,42.38
2018-11-20T04:16:13.117Z,42.58
2018-11-20T04:17:13.105Z,42.78
2018-11-20T04:18:13.364Z,42.78
2018-11-20T04:19:13.094Z,42.68
2018-11-20T04:20:13.093Z,42.27
2018-11-20T04:21:13.063Z,42.58
2018-11-20T04:22:13.052Z,42.58
2018-11-20T04:23:13.066Z,42.27
2018-11-20T04:24:13.295Z,42.58
2018-11-20T04:25:13.024Z,42.58
2018-11-20T04:26:13.017Z,42.38
2018-11-20T04:27:12.997Z,42.38
2018-11-20T04:28:12.999Z,42.47
2018-11-20T04:29:12.989Z,42.47
2018-11-20T04:30:12.963Z,42.27
2018-11-20T04:31:12.955Z,42.38
2018-11-20T04:32:13.195Z,42.68
2018-11-20T04:33:12.940Z,42.58
2018-11-20T04:34:13.191Z,42.18
2018-11-20T04:35:12.928Z,42.68
2018-11-20T04:36:12.913Z,42.38
2018-11-20T04:37:12.912Z,42.27
2018-11-20T04:38:12.884Z,42.27
2018-11-20T04:39:12.936Z,42.68
2018-11-20T04:40:12.858Z,42.18
2018-11-20T04:41:12.890Z,42.68
2018-11-20T04:42:12.858Z,42.58
2018-11-20T04:43:12.841Z,42.18
2018-11-20T04:44:13.079Z,42.58
2018-11-20T04:45:13.029Z,42.78
2018-11-20T04:46:13.053Z,42.68
2018-11-20T04:47:12.784Z,42.58
2018-11-20T04:48:13.028Z,42.47
2018-11-20T04:49:12.790Z,42.47
2018-11-20T04:50:13.022Z,42.27
2018-11-20T04:51:12.745Z,42.38
2018-11-20T04:52:12.740Z,42.38
2018-11-20T04:53:13.222Z,42.68
2018-11-20T04:54:12.765Z,42.78
2018-11-20T04:55:12.709Z,42.78
2018-11-20T04:56:12.953Z,42.68
2018-11-20T04:57:12.711Z,41.97
2018-11-20T04:58:12.678Z,42.18
2018-11-20T04:59:12.674Z,42.68
2018-11-20T05:00:12.652Z,42.78
2018-11-20T05:01:12.884Z,42.58
2018-11-20T05:02:12.880Z,42.68
2018-11-20T05:03:12.634Z,42.58
2018-11-20T05:04:12.634Z,42.38
2018-11-20T05:05:12.615Z,42.38
2018-11-20T05:06:12.843Z,42.47
2018-11-20T05:07:12.820Z,42.68
2018-11-20T05:08:12.582Z,42.68
2018-11-20T05:09:12.559Z,42.07
2018-11-20T05:10:12.542Z,42.58
2018-11-20T05:11:12.559Z,42.18
2018-11-20T05:12:12.516Z,42.78
2018-11-20T05:13:12.567Z,41.97
2018-11-20T05:14:12.769Z,42.58
2018-11-20T05:15:12.492Z,42.68
2018-11-20T05:16:12.476Z,42.68
2018-11-20T05:17:12.461Z,42.07
2018-11-20T05:18:12.708Z,42.18
2018-11-20T05:19:12.765Z,41.77
2018-11-20T05:20:12.438Z,42.58
2018-11-20T05:21:12.427Z,42.18
2018-11-20T05:22:12.419Z,42.07
2018-11-20T05:23:12.404Z,41.97
2018-11-20T05:24:12.406Z,41.97
2018-11-20T05:25:12.382Z,42.38
2018-11-20T05:26:12.363Z,42.07
2018-11-20T05:27:12.358Z,41.87
2018-11-20T05:28:12.360Z,42.18
2018-11-20T05:29:12.352Z,41.97
2018-11-20T05:30:12.588Z,41.99
2018-11-20T05:31:12.425Z,41.87
2018-11-20T05:32:12.550Z,41.97
2018-11-20T05:33:12.312Z,41.97
2018-11-20T05:34:12.780Z,41.97
2018-11-20T05:35:12.278Z,42.09
2018-11-20T05:36:12.449Z,42.07
2018-11-20T05:37:12.254Z,42.07
2018-11-20T05:38:12.243Z,41.97
2018-11-20T05:39:12.257Z,41.97
2018-11-20T05:40:12.278Z,41.97
2018-11-20T05:41:12.255Z,42.68
2018-11-20T05:42:12.203Z,42.18
2018-11-20T05:43:12.192Z,41.97
2018-11-20T05:44:12.188Z,41.97
2018-11-20T05:45:12.448Z,41.97
2018-11-20T05:46:12.149Z,41.97
2018-11-20T05:47:12.413Z,42.18
2018-11-20T05:48:12.130Z,41.87
2018-11-20T05:49:12.134Z,42.07
2018-11-20T05:50:12.121Z,41.47
2018-11-20T05:51:12.218Z,42.07
2018-11-20T05:52:12.085Z,41.87
2018-11-20T05:53:12.336Z,41.97
2018-11-20T05:54:12.083Z,42.07
2018-11-20T05:55:12.058Z,41.87
2018-11-20T05:56:12.299Z,41.67
2018-11-20T05:57:12.054Z,41.56
2018-11-20T05:58:12.168Z,41.56
2018-11-20T05:59:12.279Z,40.86
2018-11-20T06:00:13.272Z,40.56
2018-11-20T06:01:12.252Z,39.77
2018-11-20T06:02:11.997Z,39.26
2018-11-20T06:03:12.221Z,39.97
2018-11-20T06:04:11.981Z,38.06
2018-11-20T06:05:11.963Z,38.96
2018-11-20T06:06:12.119Z,38.06
2018-11-20T06:07:11.937Z,38.06
2018-11-20T06:08:11.927Z,37.55
2018-11-20T06:09:11.940Z,38.37
2018-11-20T06:10:11.922Z,38.37
2018-11-20T06:11:12.134Z,38.98
2018-11-20T06:12:11.882Z,38.98
2018-11-20T06:13:12.124Z,38.78
2018-11-20T06:14:11.856Z,39.28
2018-11-20T06:15:11.861Z,38.88
2018-11-20T06:16:11.832Z,39.48
2018-11-20T06:17:12.076Z,39.08
2018-11-20T06:18:11.808Z,39.28
2018-11-20T06:19:11.804Z,39.69
2018-11-20T06:20:11.803Z,39.08
2018-11-20T06:21:11.776Z,39.77
2018-11-20T06:22:11.777Z,39.08
2018-11-20T06:23:12.012Z,39.28
2018-11-20T06:24:11.748Z,39.26
2018-11-20T06:25:11.744Z,39.06
2018-11-20T06:26:11.731Z,39.26
2018-11-20T06:27:11.736Z,39.37
2018-11-20T06:28:11.996Z,39.06
2018-11-20T06:29:11.734Z,39.06
2018-11-20T06:30:11.765Z,39.47
2018-11-20T06:31:11.930Z,39.06
2018-11-20T06:32:11.663Z,39.06
2018-11-20T06:33:11.650Z,39.06
2018-11-20T06:34:11.913Z,39.25
2018-11-20T06:35:11.924Z,39.35
2018-11-20T06:36:11.624Z,39.15
2018-11-20T06:37:11.609Z,39.15
2018-11-20T06:38:11.860Z,39.04
2018-11-20T06:39:11.838Z,39.25
2018-11-20T06:40:11.835Z,39.04
2018-11-20T06:41:11.577Z,39.04
2018-11-20T06:42:11.555Z,39.04
2018-11-20T06:43:11.536Z,39.04
2018-11-20T06:44:11.541Z,39.53
2018-11-20T06:45:12.142Z,39.35
2018-11-20T06:46:11.586Z,39.65
2018-11-20T06:47:11.548Z,39.75
2018-11-20T06:48:11.505Z,39.85
2018-11-20T06:49:11.728Z,39.15
2018-11-20T06:50:11.479Z,39.63
2018-11-20T06:51:11.487Z,39.43
2018-11-20T06:52:11.473Z,40.66
2018-11-20T06:53:11.861Z,39.53
2018-11-20T06:54:11.430Z,39.65
2018-11-20T06:55:11.421Z,40.23
2018-11-20T06:56:11.672Z,40.64
2018-11-20T06:57:11.400Z,40.66
2018-11-20T06:58:11.383Z,41.45
2018-11-20T06:59:11.481Z,40.44
2018-11-20T07:00:12.208Z,40.94
2018-11-20T07:01:11.370Z,40.74
2018-11-20T07:02:11.394Z,40.94
2018-11-20T07:03:11.594Z,40.74
2018-11-20T07:04:11.331Z,40.74
2018-11-20T07:05:11.310Z,40.94
2018-11-20T07:06:11.559Z,41.05
2018-11-20T07:07:11.680Z,41.25
2018-11-20T07:08:12.351Z,40.64
2018-11-20T07:09:11.276Z,40.94
2018-11-20T07:10:11.506Z,40.76
2018-11-20T07:11:11.266Z,40.64
2018-11-20T07:12:11.245Z,40.74
2018-11-20T07:13:11.340Z,40.74
2018-11-20T07:14:11.472Z,41.35
2018-11-20T07:15:11.301Z,40.94
2018-11-20T07:16:11.495Z,40.74
2018-11-20T07:17:11.488Z,40.74
2018-11-20T07:18:11.666Z,40.74
2018-11-20T07:19:11.315Z,40.84
2018-11-20T07:20:11.198Z,40.44
2018-11-20T07:21:11.431Z,40.84
2018-11-20T07:22:11.487Z,40.84
2018-11-20T07:23:11.226Z,41.45
2018-11-20T07:24:11.244Z,41.14
2018-11-20T07:25:11.222Z,41.35
2018-11-20T07:26:11.291Z,41.25
2018-11-20T07:27:11.845Z,41.45
2018-11-20T07:28:11.252Z,41.45
2018-11-20T07:29:11.225Z,41.45
2018-11-20T07:30:11.254Z,41.05
2018-11-20T07:31:11.513Z,41.25
2018-11-20T07:32:11.034Z,41.55
2018-11-20T07:33:12.111Z,41.95
2018-11-20T07:34:11.029Z,41.75
2018-11-20T07:35:10.985Z,41.95
2018-11-20T07:36:11.042Z,41.65
2018-11-20T07:37:11.486Z,42.15
2018-11-20T07:38:10.963Z,42.46
2018-11-20T07:39:11.193Z,42.46
2018-11-20T07:40:10.980Z,42.55
2018-11-20T07:41:11.217Z,42.25
2018-11-20T07:42:10.930Z,42.35
2018-11-20T07:43:10.938Z,42.55
2018-11-20T07:44:11.194Z,42.55
2018-11-20T07:45:10.895Z,42.66
2018-11-20T07:46:10.891Z,42.55
2018-11-20T07:47:10.865Z,42.46
2018-11-20T07:48:10.858Z,42.25
2018-11-20T07:49:11.839Z,42.55
2018-11-20T07:50:10.854Z,42.25
2018-11-20T07:51:10.842Z,42.25
2018-11-20T07:52:10.844Z,42.15
2018-11-20T07:53:10.856Z,42.35
2018-11-20T07:54:10.800Z,42.15
2018-11-20T07:55:10.895Z,41.95
2018-11-20T07:56:11.011Z,41.95
2018-11-20T07:57:10.762Z,42.05
2018-11-20T07:58:10.754Z,42.15
2018-11-20T07:59:10.734Z,42.25
2018-11-20T08:00:10.726Z,42.15
2018-11-20T08:01:10.709Z,41.95
2018-11-20T08:02:10.730Z,42.25
2018-11-20T08:03:10.705Z,41.85
2018-11-20T08:04:10.684Z,42.05
2018-11-20T08:05:11.165Z,42.05
2018-11-20T08:06:10.660Z,42.05
2018-11-20T08:07:10.665Z,42.05
2018-11-20T08:08:10.652Z,43.06
2018-11-20T08:09:10.871Z,41.95
2018-11-20T08:10:10.643Z,42.55
2018-11-20T08:11:10.607Z,42.35
2018-11-20T08:12:10.610Z,42.05
2018-11-20T08:13:10.579Z,42.05
2018-11-20T08:14:10.823Z,43.06
2018-11-20T08:15:10.567Z,43.16
2018-11-20T08:16:10.659Z,41.95
2018-11-20T08:17:10.611Z,42.35
2018-11-20T08:18:10.783Z,42.35
2018-11-20T08:19:10.543Z,42.66
2018-11-20T08:20:10.750Z,42.55
2018-11-20T08:21:10.505Z,42.55
2018-11-20T08:22:10.802Z,42.76
2018-11-20T08:23:10.475Z,42.46
2018-11-20T08:24:10.519Z,42.86
2018-11-20T08:25:10.769Z,42.55
2018-11-20T08:26:10.617Z,42.66
2018-11-20T08:27:10.465Z,42.55
2018-11-20T08:28:10.419Z,42.35
2018-11-20T08:29:10.405Z,42.55
2018-11-20T08:30:10.656Z,42.15
2018-11-20T08:31:10.440Z,42.66
2018-11-20T08:32:10.413Z,42.15
2018-11-20T08:33:10.384Z,42.35
2018-11-20T08:34:10.472Z,42.76
2018-11-20T08:35:10.645Z,42.46
2018-11-20T08:36:10.595Z,42.15
2018-11-20T08:37:10.379Z,43.06
2018-11-20T08:38:13.942Z,43.26
2018-11-20T08:39:10.548Z,43.46
2018-11-20T08:40:10.329Z,43.26
2018-11-20T08:41:10.282Z,43.26
2018-11-20T08:42:10.335Z,43.77
2018-11-20T08:43:10.557Z,44.07
2018-11-20T08:44:10.289Z,43.46
2018-11-20T08:45:10.261Z,43.57
2018-11-20T08:46:10.229Z,44.17
2018-11-20T08:47:10.340Z,44.17
2018-11-20T08:48:10.208Z,44.87
2018-11-20T08:49:10.186Z,44.87
2018-11-20T08:50:10.186Z,45.48
2018-11-20T08:51:10.179Z,45.98
2018-11-20T08:52:10.190Z,45.76
2018-11-20T08:53:10.247Z,45.38
2018-11-20T08:54:10.407Z,45.76
2018-11-20T08:55:10.143Z,45.56
2018-11-20T08:56:10.130Z,45.68
2018-11-20T08:57:10.139Z,45.66
2018-11-20T08:58:10.107Z,45.38
2018-11-20T08:59:10.341Z,45.36
2018-11-20T09:00:11.116Z,45.26
2018-11-20T09:01:10.162Z,45.18
2018-11-20T09:02:10.624Z,45.18
2018-11-20T09:03:10.332Z,45.16
2018-11-20T09:04:10.161Z,45.28
2018-11-20T09:05:10.151Z,45.38
2018-11-20T09:06:10.132Z,45.46
2018-11-20T09:07:10.146Z,45.56
2018-11-20T09:08:10.254Z,45.28
2018-11-20T09:09:09.983Z,45.26
2018-11-20T09:10:10.055Z,45.26
2018-11-20T09:11:10.974Z,44.75
2018-11-20T09:12:10.050Z,45.48
2018-11-20T09:13:09.955Z,45.76
2018-11-20T09:14:10.014Z,45.66
2018-11-20T09:15:11.017Z,45.56
2018-11-20T09:16:10.215Z,45.48
2018-11-20T09:17:09.992Z,45.78
2018-11-20T09:18:10.294Z,45.56
2018-11-20T09:19:10.641Z,45.28
2018-11-20T09:20:11.221Z,45.26
2018-11-20T09:21:12.059Z,45.58
2018-11-20T09:22:09.955Z,45.28
2018-11-20T09:23:10.312Z,45.38
2018-11-20T09:24:10.513Z,45.26
2018-11-20T09:25:12.930Z,45.07
2018-11-20T09:26:09.897Z,45.89
2018-11-20T09:27:09.935Z,45.68
2018-11-20T09:28:09.957Z,45.97
2018-11-20T09:29:09.802Z,45.46
2018-11-20T09:30:09.798Z,45.86
2018-11-20T09:31:09.771Z,45.76
2018-11-20T09:32:10.256Z,45.86
2018-11-20T09:33:09.902Z,45.98
2018-11-20T09:34:09.723Z,45.36
2018-11-20T09:35:09.954Z,45.86
2018-11-20T09:36:10.059Z,45.16
2018-11-20T09:37:09.929Z,46.06
2018-11-20T09:38:09.974Z,45.76
2018-11-20T09:39:09.713Z,45.76
2018-11-20T09:40:09.909Z,45.86
2018-11-20T09:41:09.739Z,45.68
2018-11-20T09:42:09.639Z,45.78
2018-11-20T09:43:10.243Z,45.68
2018-11-20T09:44:09.671Z,46.09
2018-11-20T09:45:09.717Z,45.68
2018-11-20T09:46:09.891Z,45.86
2018-11-20T09:47:10.873Z,45.18
2018-11-20T09:48:09.620Z,45.56
2018-11-20T09:49:09.610Z,45.66
2018-11-20T09:50:09.833Z,45.56
2018-11-20T09:51:09.567Z,45.76
2018-11-20T09:52:09.772Z,45.56
2018-11-20T09:53:10.814Z,45.89
2018-11-20T09:54:09.558Z,45.78
2018-11-20T09:55:09.743Z,45.78
2018-11-20T09:56:09.473Z,45.98
2018-11-20T09:57:10.365Z,45.56
2018-11-20T09:58:10.740Z,45.36
2018-11-20T09:59:09.657Z,45.86
2018-11-20T10:00:11.079Z,45.78
2018-11-20T10:01:09.685Z,45.89
2018-11-20T10:02:09.476Z,45.46
2018-11-20T10:03:09.500Z,46.17
2018-11-20T10:04:09.406Z,45.66
2018-11-20T10:05:09.437Z,46.37
2018-11-20T10:06:09.394Z,46.47
2018-11-20T10:07:09.435Z,46.37
2018-11-20T10:08:09.971Z,46.37
2018-11-20T10:09:09.486Z,46.17
2018-11-20T10:10:09.447Z,46.17
2018-11-20T10:11:09.346Z,46.26
2018-11-20T10:12:10.875Z,46.26
2018-11-20T10:13:09.575Z,46.47
2018-11-20T10:14:09.724Z,46.47
2018-11-20T10:15:09.396Z,46.57
2018-11-20T10:16:09.271Z,46.47
2018-11-20T10:17:09.275Z,46.26
2018-11-20T10:18:09.270Z,46.25
2018-11-20T10:19:09.504Z,45.97
2018-11-20T10:20:09.468Z,45.94
2018-11-20T10:21:09.210Z,46.57
2018-11-20T10:22:09.742Z,46.37
2018-11-20T10:23:09.208Z,46.26
2018-11-20T10:24:10.397Z,46.67
2018-11-20T10:25:09.219Z,45.94
2018-11-20T10:26:09.553Z,46.26
2018-11-20T10:27:09.201Z,46.67
2018-11-20T10:28:09.164Z,46.57
2018-11-20T10:29:09.140Z,46.57
2018-11-20T10:31:09.157Z,46.26
2018-11-20T10:32:09.128Z,46.04
2018-11-20T10:33:09.125Z,46.17
2018-11-20T10:34:09.372Z,46.26
2018-11-20T10:35:09.311Z,46.14
2018-11-20T10:36:09.322Z,46.17
2018-11-20T10:37:09.290Z,46.26
2018-11-20T10:38:09.048Z,46.75
2018-11-20T10:39:09.037Z,46.04
2018-11-20T10:40:09.062Z,46.75
2018-11-20T10:41:09.013Z,46.75
2018-11-20T10:42:09.990Z,46.85
2018-11-20T10:43:08.988Z,46.85
2018-11-20T10:44:08.979Z,46.65
2018-11-20T10:45:11.656Z,46.85
2018-11-20T10:46:09.532Z,46.95
2018-11-20T10:47:08.929Z,47.25
2018-11-20T10:48:09.209Z,47.25
2018-11-20T10:49:08.930Z,47.55
2018-11-20T10:50:08.934Z,47.25
2018-11-20T10:51:08.972Z,47.15
2018-11-20T10:52:08.899Z,47.25
2018-11-20T10:53:09.192Z,46.95
2018-11-20T10:54:08.885Z,46.75
2018-11-20T10:55:08.924Z,47.25
2018-11-20T10:56:09.343Z,46.95
2018-11-20T10:57:09.069Z,47.25
2018-11-20T10:58:08.861Z,47.15
2018-11-20T10:59:09.056Z,46.95
2018-11-20T11:00:08.799Z,46.75
2018-11-20T11:01:08.779Z,46.95
2018-11-20T11:02:08.788Z,47.05
2018-11-20T11:03:08.776Z,46.95
2018-11-20T11:04:08.840Z,47.15
2018-11-20T11:05:09.958Z,47.25
2018-11-20T11:06:09.063Z,47.35
2018-11-20T11:07:09.043Z,47.25
2018-11-20T11:08:08.852Z,47.05
2018-11-20T11:09:08.706Z,47.15
2018-11-20T11:10:08.681Z,46.75
2018-11-20T11:11:08.683Z,47.25
2018-11-20T11:12:08.727Z,47.15
2018-11-20T11:13:08.681Z,47.35
2018-11-20T11:14:08.909Z,47.15
2018-11-20T11:15:08.882Z,47.55
2018-11-20T11:16:08.709Z,46.85
2018-11-20T11:17:08.628Z,47.15
2018-11-20T11:18:09.268Z,47.25
2018-11-20T11:19:08.625Z,46.65
2018-11-20T11:20:08.838Z,47.15
2018-11-20T11:21:11.560Z,47.15
2018-11-20T11:22:08.563Z,47.55
2018-11-20T11:23:08.613Z,47.15
2018-11-20T11:24:09.072Z,47.35
2018-11-20T11:25:08.540Z,47.45
2018-11-20T11:26:09.340Z,47.45
2018-11-20T11:27:08.508Z,47.05
2018-11-20T11:28:08.498Z,47.55
2018-11-20T11:29:08.508Z,46.95
2018-11-20T11:30:08.485Z,47.15
2018-11-20T11:31:08.478Z,46.65
2018-11-20T11:32:08.715Z,46.85
2018-11-20T11:33:08.500Z,46.65
2018-11-20T11:34:08.699Z,46.65
2018-11-20T11:35:08.420Z,46.85
2018-11-20T11:36:08.414Z,46.75
2018-11-20T11:37:08.508Z,47.05
2018-11-20T11:38:08.396Z,46.85
2018-11-20T11:39:08.403Z,46.75
2018-11-20T11:40:08.363Z,47.05
2018-11-20T11:41:08.692Z,46.55
2018-11-20T11:42:08.559Z,46.45
2018-11-20T11:43:08.588Z,46.04
2018-11-20T11:44:08.590Z,46.14
2018-11-20T11:45:08.324Z,46.12
2018-11-20T11:46:08.346Z,46.25
2018-11-20T11:47:08.285Z,46.25
2018-11-20T11:48:08.294Z,46.42
2018-11-20T11:49:09.344Z,46.45
2018-11-20T11:50:08.257Z,46.65
2018-11-20T11:51:08.251Z,46.45
2018-11-20T11:52:08.495Z,46.65
2018-11-20T11:53:08.225Z,46.55
2018-11-20T11:54:08.281Z,46.45
2018-11-20T11:55:08.541Z,46.45
2018-11-20T11:56:13.669Z,46.34
2018-11-20T11:57:08.183Z,46.55
2018-11-20T11:58:09.481Z,46.34
2018-11-20T11:59:09.523Z,46.34
2018-11-20T12:00:08.685Z,46.34
2018-11-20T12:01:08.480Z,46.55
2018-11-20T12:05:08.099Z,46.55
2018-11-20T12:06:08.196Z,46.45
2018-11-20T12:07:08.419Z,46.34
2018-11-20T12:08:08.076Z,46.45
2018-11-20T12:09:08.183Z,46.75
2018-11-20T12:10:08.301Z,46.04
2018-11-20T12:11:08.034Z,45.64
2018-11-20T12:12:08.027Z,45.94
2018-11-20T12:13:08.028Z,46.04
2018-11-20T12:14:08.291Z,46.02
2018-11-20T12:15:07.996Z,45.94
2018-11-20T12:16:08.060Z,45.54
2018-11-20T12:17:07.990Z,45.94
2018-11-20T12:18:08.262Z,45.64
2018-11-20T12:19:08.041Z,45.84
2018-11-20T12:20:07.936Z,45.84
2018-11-20T12:21:07.927Z,45.92
2018-11-20T12:22:08.998Z,45.92
2018-11-20T12:23:07.902Z,46.45
2018-11-20T12:24:07.978Z,46.34
2018-11-20T12:25:07.897Z,46.12
2018-11-20T12:26:07.869Z,46.25
2018-11-20T12:27:08.171Z,46.75
2018-11-20T12:28:08.124Z,46.25
2018-11-20T12:29:07.890Z,45.94
2018-11-20T12:30:07.839Z,46.55
2018-11-20T12:31:09.392Z,46.12
2018-11-20T12:32:08.517Z,46.53
2018-11-20T12:33:07.867Z,46.42
2018-11-20T12:34:08.040Z,45.84
2018-11-20T12:35:07.784Z,46.04
2018-11-20T12:36:08.015Z,46.14
2018-11-20T12:37:07.806Z,46.34
2018-11-20T12:38:07.741Z,46.22
2018-11-20T12:39:07.728Z,46.45
2018-11-20T12:40:07.814Z,46.95
2018-11-20T12:41:09.732Z,47.13
2018-11-20T12:42:07.703Z,46.75
2018-11-20T12:43:07.696Z,47.13
2018-11-20T12:44:07.774Z,47.15
2018-11-20T12:45:07.963Z,47.03
2018-11-20T12:46:11.200Z,46.53
2018-11-20T12:47:09.299Z,46.53
2018-11-20T12:48:07.650Z,46.14
2018-11-20T12:49:07.642Z,46.42
2018-11-20T12:50:08.600Z,46.04
2018-11-20T12:51:07.769Z,46.25
2018-11-20T12:52:08.103Z,46.22
2018-11-20T12:53:08.087Z,46.45
2018-11-20T12:54:07.606Z,46.22
2018-11-20T12:55:07.845Z,46.02
2018-11-20T12:56:07.825Z,46.62